sensor_id;sensor_type;location;lat;lon;timestamp;temperature;humidity
10828;DHT22;5467;59.334;13.512;2022-09-12T00:01:16;12.40;99.90
10828;DHT22;5467;59.334;13.512;2022-09-12T00:03:44;12.40;99.90
10828;DHT22;5467;59.334;13.512;2022-09-12T00:06:15;12.40;99.90
10828;DHT22;5467;59.334;13.512;2022-09-12T00:08:44;12.40;99.90
10828;DHT22;5467;59.334;13.512;2022-09-12T00:11:11;12.40;99.90
10828;DHT22;5467;59.334;13.512;2022-09-12T00:13:40;12.30;99.90
10828;DHT22;5467;59.334;13.512;2022-09-12T00:16:13;12.30;99.90
10828;DHT22;5467;59.334;13.512;2022-09-12T00:18:40;12.20;99.90
10828;DHT22;5467;59.334;13.512;2022-09-12T00:21:08;12.10;99.90
10828;DHT22;5467;59.334;13.512;2022-09-12T00:23:35;12.10;99.90
10828;DHT22;5467;59.334;13.512;2022-09-12T00:26:05;12.00;99.90
10828;DHT22;5467;59.334;13.512;2022-09-12T00:28:33;11.90;99.90
10828;DHT22;5467;59.334;13.512;2022-09-12T00:31:03;11.80;99.90
10828;DHT22;5467;59.334;13.512;2022-09-12T00:33:32;11.70;99.90
10828;DHT22;5467;59.334;13.512;2022-09-12T00:35:59;11.70;99.90
10828;DHT22;5467;59.334;13.512;2022-09-12T00:38:29;11.70;99.90
10828;DHT22;5467;59.334;13.512;2022-09-12T00:40:56;11.60;99.90
10828;DHT22;5467;59.334;13.512;2022-09-12T00:43:36;11.40;99.90
10828;DHT22;5467;59.334;13.512;2022-09-12T00:46:09;11.20;99.90
10828;DHT22;5467;59.334;13.512;2022-09-12T00:48:41;11.10;99.90
10828;DHT22;5467;59.334;13.512;2022-09-12T00:51:10;11.10;99.90
10828;DHT22;5467;59.334;13.512;2022-09-12T00:53:38;11.10;99.90
10828;DHT22;5467;59.334;13.512;2022-09-12T00:56:06;11.00;99.90
10828;DHT22;5467;59.334;13.512;2022-09-12T00:58:40;11.00;99.90
10828;DHT22;5467;59.334;13.512;2022-09-12T01:01:07;10.90;99.90
10828;DHT22;5467;59.334;13.512;2022-09-12T01:03:34;10.90;99.90
10828;DHT22;5467;59.334;13.512;2022-09-12T01:06:06;10.90;99.90
10828;DHT22;5467;59.334;13.512;2022-09-12T01:08:35;10.90;99.90
10828;DHT22;5467;59.334;13.512;2022-09-12T01:11:03;10.80;99.90
10828;DHT22;5467;59.334;13.512;2022-09-12T01:13:33;10.70;99.90
10828;DHT22;5467;59.334;13.512;2022-09-12T01:16:03;10.60;99.90
10828;DHT22;5467;59.334;13.512;2022-09-12T01:18:39;10.40;99.90
10828;DHT22;5467;59.334;13.512;2022-09-12T01:21:14;10.40;99.90
10828;DHT22;5467;59.334;13.512;2022-09-12T01:27:26;10.30;99.90
10828;DHT22;5467;59.334;13.512;2022-09-12T01:33:12;10.20;99.90
10828;DHT22;5467;59.334;13.512;2022-09-12T01:35:48;10.20;99.90
10828;DHT22;5467;59.334;13.512;2022-09-12T01:38:23;10.30;99.90
10828;DHT22;5467;59.334;13.512;2022-09-12T01:40:57;10.30;99.90
10828;DHT22;5467;59.334;13.512;2022-09-12T01:43:32;10.30;99.90
10828;DHT22;5467;59.334;13.512;2022-09-12T01:46:06;10.40;99.90
10828;DHT22;5467;59.334;13.512;2022-09-12T01:48:40;10.40;99.90
10828;DHT22;5467;59.334;13.512;2022-09-12T01:51:15;10.30;99.90
10828;DHT22;5467;59.334;13.512;2022-09-12T01:53:47;10.30;99.90
10828;DHT22;5467;59.334;13.512;2022-09-12T01:56:19;10.30;99.90
10828;DHT22;5467;59.334;13.512;2022-09-12T01:58:50;10.20;99.90
10828;DHT22;5467;59.334;13.512;2022-09-12T02:01:22;10.20;99.90
10828;DHT22;5467;59.334;13.512;2022-09-12T02:03:55;10.20;99.90
10828;DHT22;5467;59.334;13.512;2022-09-12T02:06:26;10.20;99.90
10828;DHT22;5467;59.334;13.512;2022-09-12T02:08:58;10.30;99.90
10828;DHT22;5467;59.334;13.512;2022-09-12T02:11:27;10.30;99.90
10828;DHT22;5467;59.334;13.512;2022-09-12T02:14:01;10.30;99.90
10828;DHT22;5467;59.334;13.512;2022-09-12T02:16:31;10.40;99.90
10828;DHT22;5467;59.334;13.512;2022-09-12T02:19:07;10.50;99.90
10828;DHT22;5467;59.334;13.512;2022-09-12T02:21:37;10.50;99.90
10828;DHT22;5467;59.334;13.512;2022-09-12T02:24:09;10.50;99.90
10828;DHT22;5467;59.334;13.512;2022-09-12T02:26:44;10.60;99.90
10828;DHT22;5467;59.334;13.512;2022-09-12T02:29:13;10.60;99.90
10828;DHT22;5467;59.334;13.512;2022-09-12T02:31:44;10.60;99.90
10828;DHT22;5467;59.334;13.512;2022-09-12T02:34:26;10.60;99.90
10828;DHT22;5467;59.334;13.512;2022-09-12T02:37:03;10.60;99.90
10828;DHT22;5467;59.334;13.512;2022-09-12T02:39:31;10.70;99.90
10828;DHT22;5467;59.334;13.512;2022-09-12T02:42:00;10.70;99.90
10828;DHT22;5467;59.334;13.512;2022-09-12T02:44:30;10.60;99.90
10828;DHT22;5467;59.334;13.512;2022-09-12T02:47:02;10.60;99.90
10828;DHT22;5467;59.334;13.512;2022-09-12T02:49:32;10.60;99.90
10828;DHT22;5467;59.334;13.512;2022-09-12T02:52:00;10.60;99.90
10828;DHT22;5467;59.334;13.512;2022-09-12T02:54:28;10.60;99.90
10828;DHT22;5467;59.334;13.512;2022-09-12T02:56:56;10.60;99.90
10828;DHT22;5467;59.334;13.512;2022-09-12T02:59:23;10.60;99.90
10828;DHT22;5467;59.334;13.512;2022-09-12T03:02:19;10.50;99.90
10828;DHT22;5467;59.334;13.512;2022-09-12T03:05:10;10.50;99.90
10828;DHT22;5467;59.334;13.512;2022-09-12T03:10:36;10.60;99.90
10828;DHT22;5467;59.334;13.512;2022-09-12T03:13:14;10.50;99.90
10828;DHT22;5467;59.334;13.512;2022-09-12T03:15:51;10.50;99.90
10828;DHT22;5467;59.334;13.512;2022-09-12T03:18:30;10.60;99.90
10828;DHT22;5467;59.334;13.512;2022-09-12T03:21:08;10.60;99.90
10828;DHT22;5467;59.334;13.512;2022-09-12T03:23:43;10.60;99.90
10828;DHT22;5467;59.334;13.512;2022-09-12T03:26:15;10.60;99.90
10828;DHT22;5467;59.334;13.512;2022-09-12T03:28:46;10.60;99.90
10828;DHT22;5467;59.334;13.512;2022-09-12T03:31:15;10.60;99.90
10828;DHT22;5467;59.334;13.512;2022-09-12T03:33:43;10.50;99.90
10828;DHT22;5467;59.334;13.512;2022-09-12T03:36:15;10.50;99.90
10828;DHT22;5467;59.334;13.512;2022-09-12T03:38:43;10.60;99.90
10828;DHT22;5467;59.334;13.512;2022-09-12T03:41:10;10.60;99.90
10828;DHT22;5467;59.334;13.512;2022-09-12T03:43:37;10.70;99.90
10828;DHT22;5467;59.334;13.512;2022-09-12T03:46:04;10.80;99.90
10828;DHT22;5467;59.334;13.512;2022-09-12T03:48:31;10.80;99.90
10828;DHT22;5467;59.334;13.512;2022-09-12T03:51:01;10.90;99.90
10828;DHT22;5467;59.334;13.512;2022-09-12T03:53:30;11.00;99.90
10828;DHT22;5467;59.334;13.512;2022-09-12T03:55:57;11.00;99.90
10828;DHT22;5467;59.334;13.512;2022-09-12T03:58:29;11.00;99.90
10828;DHT22;5467;59.334;13.512;2022-09-12T04:00:56;11.10;99.90
10828;DHT22;5467;59.334;13.512;2022-09-12T04:03:23;11.10;99.90
10828;DHT22;5467;59.334;13.512;2022-09-12T04:05:50;11.20;99.90
10828;DHT22;5467;59.334;13.512;2022-09-12T04:08:18;11.20;99.90
10828;DHT22;5467;59.334;13.512;2022-09-12T04:10:46;11.30;99.90
10828;DHT22;5467;59.334;13.512;2022-09-12T04:13:13;11.30;99.90
10828;DHT22;5467;59.334;13.512;2022-09-12T04:15:40;11.30;99.90
10828;DHT22;5467;59.334;13.512;2022-09-12T04:18:07;11.40;99.90
10828;DHT22;5467;59.334;13.512;2022-09-12T04:20:35;11.50;99.90
10828;DHT22;5467;59.334;13.512;2022-09-12T04:23:02;11.50;99.90
10828;DHT22;5467;59.334;13.512;2022-09-12T04:25:29;11.50;99.90
10828;DHT22;5467;59.334;13.512;2022-09-12T04:27:58;11.60;99.90
10828;DHT22;5467;59.334;13.512;2022-09-12T04:30:25;11.60;99.90
10828;DHT22;5467;59.334;13.512;2022-09-12T04:32:52;11.60;99.90
10828;DHT22;5467;59.334;13.512;2022-09-12T04:35:19;11.60;99.90
10828;DHT22;5467;59.334;13.512;2022-09-12T04:37:46;11.60;99.90
10828;DHT22;5467;59.334;13.512;2022-09-12T04:40:12;11.60;99.90
10828;DHT22;5467;59.334;13.512;2022-09-12T04:42:39;11.60;99.90
10828;DHT22;5467;59.334;13.512;2022-09-12T04:45:08;11.70;99.90
10828;DHT22;5467;59.334;13.512;2022-09-12T04:47:36;11.70;99.90
10828;DHT22;5467;59.334;13.512;2022-09-12T04:50:03;11.80;99.90
10828;DHT22;5467;59.334;13.512;2022-09-12T04:52:30;11.80;99.90
10828;DHT22;5467;59.334;13.512;2022-09-12T04:54:57;11.80;99.90
10828;DHT22;5467;59.334;13.512;2022-09-12T04:57:24;11.80;99.90
10828;DHT22;5467;59.334;13.512;2022-09-12T04:59:51;11.90;99.90
10828;DHT22;5467;59.334;13.512;2022-09-12T05:02:19;11.90;99.90
10828;DHT22;5467;59.334;13.512;2022-09-12T05:04:46;12.00;99.90
10828;DHT22;5467;59.334;13.512;2022-09-12T05:07:13;12.10;99.90
10828;DHT22;5467;59.334;13.512;2022-09-12T05:09:40;12.10;99.90
10828;DHT22;5467;59.334;13.512;2022-09-12T05:12:07;12.20;99.90
10828;DHT22;5467;59.334;13.512;2022-09-12T05:14:34;12.20;99.90
10828;DHT22;5467;59.334;13.512;2022-09-12T05:17:02;12.30;99.90
10828;DHT22;5467;59.334;13.512;2022-09-12T05:19:32;12.30;99.90
10828;DHT22;5467;59.334;13.512;2022-09-12T05:21:59;12.40;99.90
10828;DHT22;5467;59.334;13.512;2022-09-12T05:24:26;12.50;99.90
10828;DHT22;5467;59.334;13.512;2022-09-12T05:26:53;12.60;99.90
10828;DHT22;5467;59.334;13.512;2022-09-12T05:29:20;12.70;99.90
10828;DHT22;5467;59.334;13.512;2022-09-12T05:31:47;12.80;99.90
10828;DHT22;5467;59.334;13.512;2022-09-12T05:34:14;12.80;99.90
10828;DHT22;5467;59.334;13.512;2022-09-12T05:36:43;12.90;99.90
10828;DHT22;5467;59.334;13.512;2022-09-12T05:39:10;13.00;99.90
10828;DHT22;5467;59.334;13.512;2022-09-12T05:41:37;13.00;99.90
10828;DHT22;5467;59.334;13.512;2022-09-12T05:44:05;13.10;99.90
10828;DHT22;5467;59.334;13.512;2022-09-12T05:46:36;13.20;99.90
10828;DHT22;5467;59.334;13.512;2022-09-12T05:49:04;13.20;99.90
10828;DHT22;5467;59.334;13.512;2022-09-12T05:51:33;13.30;99.90
10828;DHT22;5467;59.334;13.512;2022-09-12T05:54:03;13.30;99.90
10828;DHT22;5467;59.334;13.512;2022-09-12T05:56:32;13.30;99.90
10828;DHT22;5467;59.334;13.512;2022-09-12T05:59:01;13.20;99.90
10828;DHT22;5467;59.334;13.512;2022-09-12T06:01:29;13.20;99.90
10828;DHT22;5467;59.334;13.512;2022-09-12T06:04:00;13.20;99.90
10828;DHT22;5467;59.334;13.512;2022-09-12T06:06:29;13.30;99.90
10828;DHT22;5467;59.334;13.512;2022-09-12T06:08:58;13.50;99.90
10828;DHT22;5467;59.334;13.512;2022-09-12T06:11:29;13.60;99.90
10828;DHT22;5467;59.334;13.512;2022-09-12T06:13:58;13.60;99.90
10828;DHT22;5467;59.334;13.512;2022-09-12T06:16:26;13.50;99.90
10828;DHT22;5467;59.334;13.512;2022-09-12T06:18:54;13.40;99.90
10828;DHT22;5467;59.334;13.512;2022-09-12T06:21:22;13.60;99.90
10828;DHT22;5467;59.334;13.512;2022-09-12T06:23:50;13.70;99.90
10828;DHT22;5467;59.334;13.512;2022-09-12T06:26:18;13.80;99.90
10828;DHT22;5467;59.334;13.512;2022-09-12T06:28:50;13.80;99.90
10828;DHT22;5467;59.334;13.512;2022-09-12T06:31:19;14.00;99.90
10828;DHT22;5467;59.334;13.512;2022-09-12T06:33:48;14.00;99.90
10828;DHT22;5467;59.334;13.512;2022-09-12T06:36:17;14.10;99.90
10828;DHT22;5467;59.334;13.512;2022-09-12T06:38:46;14.40;99.90
10828;DHT22;5467;59.334;13.512;2022-09-12T06:41:13;14.30;99.90
10828;DHT22;5467;59.334;13.512;2022-09-12T06:43:41;14.40;99.90
10828;DHT22;5467;59.334;13.512;2022-09-12T06:46:09;14.60;99.90
10828;DHT22;5467;59.334;13.512;2022-09-12T06:48:37;14.60;99.90
10828;DHT22;5467;59.334;13.512;2022-09-12T06:51:06;14.70;99.90
10828;DHT22;5467;59.334;13.512;2022-09-12T06:53:34;14.80;99.90
10828;DHT22;5467;59.334;13.512;2022-09-12T06:56:04;14.70;99.90
10828;DHT22;5467;59.334;13.512;2022-09-12T06:58:33;14.80;99.90
10828;DHT22;5467;59.334;13.512;2022-09-12T07:01:00;14.90;99.90
10828;DHT22;5467;59.334;13.512;2022-09-12T07:03:29;14.90;99.90
10828;DHT22;5467;59.334;13.512;2022-09-12T07:05:57;14.90;99.90
10828;DHT22;5467;59.334;13.512;2022-09-12T07:08:28;14.90;99.90
10828;DHT22;5467;59.334;13.512;2022-09-12T07:10:56;14.90;99.90
10828;DHT22;5467;59.334;13.512;2022-09-12T07:13:23;15.10;99.90
10828;DHT22;5467;59.334;13.512;2022-09-12T07:15:51;15.20;99.90
10828;DHT22;5467;59.334;13.512;2022-09-12T07:18:18;15.40;99.90
10828;DHT22;5467;59.334;13.512;2022-09-12T07:20:46;15.40;99.90
10828;DHT22;5467;59.334;13.512;2022-09-12T07:23:13;15.40;99.90
10828;DHT22;5467;59.334;13.512;2022-09-12T07:25:40;15.40;99.90
10828;DHT22;5467;59.334;13.512;2022-09-12T07:28:07;15.50;99.90
10828;DHT22;5467;59.334;13.512;2022-09-12T07:30:35;15.30;99.90
10828;DHT22;5467;59.334;13.512;2022-09-12T07:33:03;15.30;99.90
10828;DHT22;5467;59.334;13.512;2022-09-12T07:35:32;15.40;99.90
10828;DHT22;5467;59.334;13.512;2022-09-12T07:38:01;15.40;99.90
10828;DHT22;5467;59.334;13.512;2022-09-12T07:40:28;15.50;99.90
10828;DHT22;5467;59.334;13.512;2022-09-12T07:42:55;15.60;99.90
10828;DHT22;5467;59.334;13.512;2022-09-12T07:45:22;15.70;99.90
10828;DHT22;5467;59.334;13.512;2022-09-12T07:47:52;15.80;99.90
10828;DHT22;5467;59.334;13.512;2022-09-12T07:50:19;15.70;99.90
10828;DHT22;5467;59.334;13.512;2022-09-12T07:52:46;15.60;99.90
10828;DHT22;5467;59.334;13.512;2022-09-12T07:55:15;15.60;99.90
10828;DHT22;5467;59.334;13.512;2022-09-12T07:57:42;15.60;99.90
10828;DHT22;5467;59.334;13.512;2022-09-12T08:00:09;15.60;99.90
10828;DHT22;5467;59.334;13.512;2022-09-12T08:02:37;15.80;99.90
10828;DHT22;5467;59.334;13.512;2022-09-12T08:05:04;15.80;99.90
10828;DHT22;5467;59.334;13.512;2022-09-12T08:07:31;15.90;99.90
10828;DHT22;5467;59.334;13.512;2022-09-12T08:09:59;16.00;99.90
10828;DHT22;5467;59.334;13.512;2022-09-12T08:12:28;15.80;99.90
10828;DHT22;5467;59.334;13.512;2022-09-12T08:14:56;15.80;99.90
10828;DHT22;5467;59.334;13.512;2022-09-12T08:17:23;15.90;99.90
10828;DHT22;5467;59.334;13.512;2022-09-12T08:19:51;16.00;99.90
10828;DHT22;5467;59.334;13.512;2022-09-12T08:22:18;16.00;99.90
10828;DHT22;5467;59.334;13.512;2022-09-12T08:24:46;16.00;99.90
10828;DHT22;5467;59.334;13.512;2022-09-12T08:27:13;16.10;99.90
10828;DHT22;5467;59.334;13.512;2022-09-12T08:29:42;16.00;99.90
10828;DHT22;5467;59.334;13.512;2022-09-12T08:32:09;16.00;99.90
10828;DHT22;5467;59.334;13.512;2022-09-12T08:34:36;16.10;99.90
10828;DHT22;5467;59.334;13.512;2022-09-12T08:37:03;16.20;99.90
10828;DHT22;5467;59.334;13.512;2022-09-12T08:39:30;16.20;99.90
10828;DHT22;5467;59.334;13.512;2022-09-12T08:42:00;16.20;99.90
10828;DHT22;5467;59.334;13.512;2022-09-12T08:44:59;16.20;99.90
10828;DHT22;5467;59.334;13.512;2022-09-12T08:47:29;16.20;99.90
10828;DHT22;5467;59.334;13.512;2022-09-12T08:50:05;16.30;99.90
10828;DHT22;5467;59.334;13.512;2022-09-12T08:52:39;16.40;99.90
10828;DHT22;5467;59.334;13.512;2022-09-12T08:55:29;16.40;99.90
10828;DHT22;5467;59.334;13.512;2022-09-12T08:57:57;16.40;99.90
10828;DHT22;5467;59.334;13.512;2022-09-12T09:00:33;16.30;99.90
10828;DHT22;5467;59.334;13.512;2022-09-12T09:06:09;16.20;99.90
10828;DHT22;5467;59.334;13.512;2022-09-12T09:08:48;16.20;99.90
10828;DHT22;5467;59.334;13.512;2022-09-12T09:11:33;16.20;99.90
10828;DHT22;5467;59.334;13.512;2022-09-12T09:14:13;16.30;99.90
10828;DHT22;5467;59.334;13.512;2022-09-12T09:17:02;16.30;99.90
10828;DHT22;5467;59.334;13.512;2022-09-12T09:19:38;16.40;99.90
10828;DHT22;5467;59.334;13.512;2022-09-12T09:22:11;16.50;99.90
10828;DHT22;5467;59.334;13.512;2022-09-12T09:24:41;16.70;99.90
10828;DHT22;5467;59.334;13.512;2022-09-12T09:27:13;16.70;99.90
10828;DHT22;5467;59.334;13.512;2022-09-12T09:29:46;16.60;99.90
10828;DHT22;5467;59.334;13.512;2022-09-12T09:32:25;16.50;99.90
10828;DHT22;5467;59.334;13.512;2022-09-12T09:34:52;16.50;99.90
10828;DHT22;5467;59.334;13.512;2022-09-12T09:37:24;16.40;99.90
10828;DHT22;5467;59.334;13.512;2022-09-12T09:40:00;16.30;99.90
10828;DHT22;5467;59.334;13.512;2022-09-12T09:42:37;16.30;99.90
10828;DHT22;5467;59.334;13.512;2022-09-12T09:45:12;16.40;99.90
10828;DHT22;5467;59.334;13.512;2022-09-12T09:47:44;16.40;99.90
10828;DHT22;5467;59.334;13.512;2022-09-12T09:50:13;16.50;99.90
10828;DHT22;5467;59.334;13.512;2022-09-12T09:52:42;16.40;99.90
10828;DHT22;5467;59.334;13.512;2022-09-12T09:55:15;16.60;99.90
10828;DHT22;5467;59.334;13.512;2022-09-12T09:57:44;16.60;99.90
10828;DHT22;5467;59.334;13.512;2022-09-12T10:00:39;16.60;99.90
10828;DHT22;5467;59.334;13.512;2022-09-12T10:03:24;16.60;99.90
10828;DHT22;5467;59.334;13.512;2022-09-12T10:05:55;16.60;99.90
10828;DHT22;5467;59.334;13.512;2022-09-12T10:08:24;16.70;99.90
10828;DHT22;5467;59.334;13.512;2022-09-12T10:10:53;16.70;99.90
10828;DHT22;5467;59.334;13.512;2022-09-12T10:13:24;16.70;99.90
10828;DHT22;5467;59.334;13.512;2022-09-12T10:15:57;16.80;99.90
10828;DHT22;5467;59.334;13.512;2022-09-12T10:18:36;16.90;99.90
10828;DHT22;5467;59.334;13.512;2022-09-12T10:21:14;16.80;99.90
10828;DHT22;5467;59.334;13.512;2022-09-12T10:23:41;16.80;99.90
10828;DHT22;5467;59.334;13.512;2022-09-12T10:26:11;16.80;99.90
10828;DHT22;5467;59.334;13.512;2022-09-12T10:28:40;16.80;99.90
10828;DHT22;5467;59.334;13.512;2022-09-12T10:31:12;16.90;99.90
10828;DHT22;5467;59.334;13.512;2022-09-12T10:33:43;16.90;99.90
10828;DHT22;5467;59.334;13.512;2022-09-12T10:36:12;17.10;99.90
10828;DHT22;5467;59.334;13.512;2022-09-12T10:38:47;17.10;99.90
10828;DHT22;5467;59.334;13.512;2022-09-12T10:41:15;17.20;99.90
10828;DHT22;5467;59.334;13.512;2022-09-12T10:43:42;17.30;99.90
10828;DHT22;5467;59.334;13.512;2022-09-12T10:46:36;17.40;99.90
10828;DHT22;5467;59.334;13.512;2022-09-12T10:49:29;17.40;99.90
10828;DHT22;5467;59.334;13.512;2022-09-12T10:52:16;17.40;99.90
10828;DHT22;5467;59.334;13.512;2022-09-12T10:54:43;17.20;99.90
10828;DHT22;5467;59.334;13.512;2022-09-12T11:00:08;17.40;99.90
10828;DHT22;5467;59.334;13.512;2022-09-12T11:02:50;17.60;99.90
10828;DHT22;5467;59.334;13.512;2022-09-12T11:05:36;17.60;99.90
10828;DHT22;5467;59.334;13.512;2022-09-12T11:08:16;17.50;99.90
10828;DHT22;5467;59.334;13.512;2022-09-12T11:10:50;17.20;99.90
10828;DHT22;5467;59.334;13.512;2022-09-12T11:13:42;17.20;99.90
10828;DHT22;5467;59.334;13.512;2022-09-12T11:16:20;17.40;99.90
10828;DHT22;5467;59.334;13.512;2022-09-12T11:22:21;17.60;99.90
10828;DHT22;5467;59.334;13.512;2022-09-12T11:25:22;17.50;99.90
10828;DHT22;5467;59.334;13.512;2022-09-12T11:28:01;17.50;99.90
10828;DHT22;5467;59.334;13.512;2022-09-12T11:30:36;17.40;99.90
10828;DHT22;5467;59.334;13.512;2022-09-12T11:33:13;17.60;99.90
10828;DHT22;5467;59.334;13.512;2022-09-12T11:35:47;17.60;99.90
10828;DHT22;5467;59.334;13.512;2022-09-12T11:41:19;17.80;99.90
10828;DHT22;5467;59.334;13.512;2022-09-12T11:43:53;18.10;99.90
10828;DHT22;5467;59.334;13.512;2022-09-12T11:46:26;18.20;99.90
10828;DHT22;5467;59.334;13.512;2022-09-12T11:48:58;18.20;99.90
10828;DHT22;5467;59.334;13.512;2022-09-12T11:51:32;18.00;99.90
10828;DHT22;5467;59.334;13.512;2022-09-12T11:54:09;17.80;99.90
10828;DHT22;5467;59.334;13.512;2022-09-12T11:56:41;17.80;99.90
10828;DHT22;5467;59.334;13.512;2022-09-12T11:59:15;17.80;99.90
10828;DHT22;5467;59.334;13.512;2022-09-12T12:01:44;17.90;99.90
10828;DHT22;5467;59.334;13.512;2022-09-12T12:04:16;17.80;99.90
10828;DHT22;5467;59.334;13.512;2022-09-12T12:06:51;17.80;99.90
10828;DHT22;5467;59.334;13.512;2022-09-12T12:09:21;17.80;99.90
10828;DHT22;5467;59.334;13.512;2022-09-12T12:11:50;17.80;99.90
10828;DHT22;5467;59.334;13.512;2022-09-12T12:14:20;17.60;99.90
10828;DHT22;5467;59.334;13.512;2022-09-12T12:16:48;17.70;99.90
10828;DHT22;5467;59.334;13.512;2022-09-12T12:19:32;17.60;99.90
10828;DHT22;5467;59.334;13.512;2022-09-12T12:22:11;17.70;99.90
10828;DHT22;5467;59.334;13.512;2022-09-12T12:25:06;17.50;99.90
10828;DHT22;5467;59.334;13.512;2022-09-12T12:27:49;17.40;99.90
10828;DHT22;5467;59.334;13.512;2022-09-12T12:36:39;17.10;99.90
10828;DHT22;5467;59.334;13.512;2022-09-12T12:48:59;16.90;99.90
10828;DHT22;5467;59.334;13.512;2022-09-12T12:51:56;16.90;99.90
10828;DHT22;5467;59.334;13.512;2022-09-12T12:54:27;16.80;99.90
10828;DHT22;5467;59.334;13.512;2022-09-12T12:57:04;16.80;99.90
10828;DHT22;5467;59.334;13.512;2022-09-12T12:59:32;16.80;99.90
10828;DHT22;5467;59.334;13.512;2022-09-12T13:01:59;16.90;99.90
10828;DHT22;5467;59.334;13.512;2022-09-12T13:04:29;17.00;99.90
10828;DHT22;5467;59.334;13.512;2022-09-12T13:07:00;17.20;99.90
10828;DHT22;5467;59.334;13.512;2022-09-12T13:09:32;17.20;99.90
10828;DHT22;5467;59.334;13.512;2022-09-12T13:12:02;17.10;99.90
10828;DHT22;5467;59.334;13.512;2022-09-12T13:17:21;17.30;99.90
10828;DHT22;5467;59.334;13.512;2022-09-12T13:19:53;17.50;99.90
10828;DHT22;5467;59.334;13.512;2022-09-12T13:22:22;17.40;99.90
10828;DHT22;5467;59.334;13.512;2022-09-12T13:24:50;17.20;99.90
10828;DHT22;5467;59.334;13.512;2022-09-12T13:27:19;17.30;99.90
10828;DHT22;5467;59.334;13.512;2022-09-12T13:29:47;17.40;99.90
10828;DHT22;5467;59.334;13.512;2022-09-12T13:32:15;17.30;99.90
10828;DHT22;5467;59.334;13.512;2022-09-12T13:35:00;17.20;99.90
10828;DHT22;5467;59.334;13.512;2022-09-12T13:37:42;17.20;99.90
10828;DHT22;5467;59.334;13.512;2022-09-12T13:40:26;17.20;99.90
10828;DHT22;5467;59.334;13.512;2022-09-12T13:43:10;17.20;99.90
10828;DHT22;5467;59.334;13.512;2022-09-12T13:45:38;17.10;99.90
10828;DHT22;5467;59.334;13.512;2022-09-12T13:48:09;16.90;99.90
10828;DHT22;5467;59.334;13.512;2022-09-12T13:50:43;16.90;99.90
10828;DHT22;5467;59.334;13.512;2022-09-12T13:53:14;17.00;99.90
10828;DHT22;5467;59.334;13.512;2022-09-12T13:55:45;17.00;99.90
10828;DHT22;5467;59.334;13.512;2022-09-12T13:58:21;17.00;99.90
10828;DHT22;5467;59.334;13.512;2022-09-12T14:01:00;17.00;99.90
10828;DHT22;5467;59.334;13.512;2022-09-12T14:03:29;17.10;99.90
10828;DHT22;5467;59.334;13.512;2022-09-12T14:06:15;17.00;99.90
10828;DHT22;5467;59.334;13.512;2022-09-12T14:08:44;17.10;99.90
10828;DHT22;5467;59.334;13.512;2022-09-12T14:11:20;17.20;99.90
10828;DHT22;5467;59.334;13.512;2022-09-12T14:13:48;17.10;99.90
10828;DHT22;5467;59.334;13.512;2022-09-12T14:16:17;17.20;99.90
10828;DHT22;5467;59.334;13.512;2022-09-12T14:18:46;17.30;99.90
10828;DHT22;5467;59.334;13.512;2022-09-12T14:21:25;17.30;99.90
10828;DHT22;5467;59.334;13.512;2022-09-12T14:23:56;17.30;99.90
10828;DHT22;5467;59.334;13.512;2022-09-12T14:26:24;17.30;99.90
10828;DHT22;5467;59.334;13.512;2022-09-12T14:28:54;17.30;99.90
10828;DHT22;5467;59.334;13.512;2022-09-12T14:31:23;17.40;99.90
10828;DHT22;5467;59.334;13.512;2022-09-12T14:33:52;17.50;99.90
10828;DHT22;5467;59.334;13.512;2022-09-12T14:36:24;17.50;99.90
10828;DHT22;5467;59.334;13.512;2022-09-12T14:38:54;17.50;99.90
10828;DHT22;5467;59.334;13.512;2022-09-12T14:41:26;17.40;99.90
10828;DHT22;5467;59.334;13.512;2022-09-12T14:43:57;17.40;99.90
10828;DHT22;5467;59.334;13.512;2022-09-12T14:46:29;17.60;99.90
10828;DHT22;5467;59.334;13.512;2022-09-12T14:48:59;17.70;99.90
10828;DHT22;5467;59.334;13.512;2022-09-12T14:51:32;17.80;99.90
10828;DHT22;5467;59.334;13.512;2022-09-12T14:54:00;17.90;99.90
10828;DHT22;5467;59.334;13.512;2022-09-12T14:56:38;17.80;99.90
10828;DHT22;5467;59.334;13.512;2022-09-12T14:59:28;17.70;99.90
10828;DHT22;5467;59.334;13.512;2022-09-12T15:02:26;17.80;99.90
10828;DHT22;5467;59.334;13.512;2022-09-12T15:04:54;17.90;99.90
10828;DHT22;5467;59.334;13.512;2022-09-12T15:07:44;18.00;99.90
10828;DHT22;5467;59.334;13.512;2022-09-12T15:10:20;18.00;99.90
10828;DHT22;5467;59.334;13.512;2022-09-12T15:12:50;18.00;99.90
10828;DHT22;5467;59.334;13.512;2022-09-12T15:15:29;18.10;99.90
10828;DHT22;5467;59.334;13.512;2022-09-12T15:17:56;18.00;99.90
10828;DHT22;5467;59.334;13.512;2022-09-12T15:20:23;17.80;99.90
10828;DHT22;5467;59.334;13.512;2022-09-12T15:22:52;17.70;99.90
10828;DHT22;5467;59.334;13.512;2022-09-12T15:25:19;17.60;99.90
10828;DHT22;5467;59.334;13.512;2022-09-12T15:27:46;17.70;99.90
10828;DHT22;5467;59.334;13.512;2022-09-12T15:30:14;17.50;99.90
10828;DHT22;5467;59.334;13.512;2022-09-12T15:32:42;17.40;99.90
10828;DHT22;5467;59.334;13.512;2022-09-12T15:35:13;17.50;99.90
10828;DHT22;5467;59.334;13.512;2022-09-12T15:37:42;17.40;99.90
10828;DHT22;5467;59.334;13.512;2022-09-12T15:40:11;17.50;99.90
10828;DHT22;5467;59.334;13.512;2022-09-12T15:42:39;17.50;99.90
10828;DHT22;5467;59.334;13.512;2022-09-12T15:45:15;17.40;99.90
10828;DHT22;5467;59.334;13.512;2022-09-12T15:47:43;17.40;99.90
10828;DHT22;5467;59.334;13.512;2022-09-12T15:50:10;17.40;99.90
10828;DHT22;5467;59.334;13.512;2022-09-12T15:52:37;17.40;99.90
10828;DHT22;5467;59.334;13.512;2022-09-12T15:55:11;17.50;99.90
10828;DHT22;5467;59.334;13.512;2022-09-12T15:57:42;17.30;99.90
10828;DHT22;5467;59.334;13.512;2022-09-12T16:00:11;17.40;99.90
10828;DHT22;5467;59.334;13.512;2022-09-12T16:02:38;17.40;99.90
10828;DHT22;5467;59.334;13.512;2022-09-12T16:05:05;17.50;99.90
10828;DHT22;5467;59.334;13.512;2022-09-12T16:07:36;17.50;99.90
10828;DHT22;5467;59.334;13.512;2022-09-12T16:10:04;17.30;99.90
10828;DHT22;5467;59.334;13.512;2022-09-12T16:12:33;17.30;99.90
10828;DHT22;5467;59.334;13.512;2022-09-12T16:15:00;17.40;99.90
10828;DHT22;5467;59.334;13.512;2022-09-12T16:17:27;17.50;99.90
10828;DHT22;5467;59.334;13.512;2022-09-12T16:19:54;17.50;99.90
10828;DHT22;5467;59.334;13.512;2022-09-12T16:22:21;17.40;99.90
10828;DHT22;5467;59.334;13.512;2022-09-12T16:24:48;17.20;99.90
10828;DHT22;5467;59.334;13.512;2022-09-12T16:27:14;17.20;99.90
10828;DHT22;5467;59.334;13.512;2022-09-12T16:29:43;17.20;99.90
10828;DHT22;5467;59.334;13.512;2022-09-12T16:32:10;17.20;99.90
10828;DHT22;5467;59.334;13.512;2022-09-12T16:34:37;17.20;99.90
10828;DHT22;5467;59.334;13.512;2022-09-12T16:37:04;17.20;99.90